sensor_id;sensor_type;location;lat;lon;timestamp;P1;durP1;ratioP1;P2;durP2;ratioP2
1567;SDS011;777;47.156;8.326;2024-03-02T00:11:10;10.38;;;9.25;;
1567;SDS011;777;47.156;8.326;2024-03-02T00:41:17;11.52;;;10.43;;
1567;SDS011;777;47.156;8.326;2024-03-02T01:11:25;12.77;;;11.57;;
1567;SDS011;777;47.156;8.326;2024-03-02T01:41:28;14.82;;;13.32;;
1567;SDS011;777;47.156;8.326;2024-03-02T02:41:36;33.13;;;17.35;;
1567;SDS011;777;47.156;8.326;2024-03-02T03:11:42;36.25;;;17.45;;
1567;SDS011;777;47.156;8.326;2024-03-02T03:41:46;14.23;;;13.02;;
1567;SDS011;777;47.156;8.326;2024-03-02T04:11:49;11.02;;;10.02;;
1567;SDS011;777;47.156;8.326;2024-03-02T04:41:53;16.05;;;14.45;;
1567;SDS011;777;47.156;8.326;2024-03-02T05:11:59;16.00;;;14.40;;
1567;SDS011;777;47.156;8.326;2024-03-02T05:42:24;13.55;;;12.15;;
1567;SDS011;777;47.156;8.326;2024-03-02T06:12:29;19.13;;;14.38;;
1567;SDS011;777;47.156;8.326;2024-03-02T06:42:35;25.15;;;16.65;;
1567;SDS011;777;47.156;8.326;2024-03-02T07:12:38;44.05;;;8.50;;
1567;SDS011;777;47.156;8.326;2024-03-02T07:42:42;3.70;;;2.75;;
1567;SDS011;777;47.156;8.326;2024-03-02T08:12:45;2.08;;;1.88;;
1567;SDS011;777;47.156;8.326;2024-03-02T08:42:50;4.38;;;2.90;;
1567;SDS011;777;47.156;8.326;2024-03-02T09:12:53;4.70;;;4.25;;
1567;SDS011;777;47.156;8.326;2024-03-02T09:42:57;2.90;;;2.70;;
1567;SDS011;777;47.156;8.326;2024-03-02T10:13:04;14.10;;;12.57;;
1567;SDS011;777;47.156;8.326;2024-03-02T10:43:08;10.68;;;9.68;;
1567;SDS011;777;47.156;8.326;2024-03-02T11:13:13;7.05;;;6.35;;
1567;SDS011;777;47.156;8.326;2024-03-02T11:43:17;2.72;;;2.53;;
1567;SDS011;777;47.156;8.326;2024-03-02T12:13:22;3.50;;;3.20;;
1567;SDS011;777;47.156;8.326;2024-03-02T12:43:29;3.30;;;2.80;;
1567;SDS011;777;47.156;8.326;2024-03-02T13:13:33;3.47;;;2.65;;
1567;SDS011;777;47.156;8.326;2024-03-02T13:43:37;3.13;;;2.78;;
1567;SDS011;777;47.156;8.326;2024-03-02T14:13:41;6.10;;;4.20;;
1567;SDS011;777;47.156;8.326;2024-03-02T14:43:46;4.28;;;3.80;;
1567;SDS011;777;47.156;8.326;2024-03-02T15:13:49;5.13;;;4.00;;
1567;SDS011;777;47.156;8.326;2024-03-02T15:43:53;3.88;;;3.58;;
1567;SDS011;777;47.156;8.326;2024-03-02T16:13:57;5.40;;;4.90;;
1567;SDS011;777;47.156;8.326;2024-03-02T16:44:00;5.47;;;4.93;;
1567;SDS011;777;47.156;8.326;2024-03-02T17:14:05;8.55;;;6.97;;
1567;SDS011;777;47.156;8.326;2024-03-02T17:44:11;7.78;;;6.97;;
1567;SDS011;777;47.156;8.326;2024-03-02T18:14:17;9.02;;;8.13;;
1567;SDS011;777;47.156;8.326;2024-03-02T19:14:23;10.27;;;9.18;;
1567;SDS011;777;47.156;8.326;2024-03-02T19:44:27;9.70;;;8.67;;
1567;SDS011;777;47.156;8.326;2024-03-02T20:14:34;8.48;;;7.68;;
1567;SDS011;777;47.156;8.326;2024-03-02T20:44:37;8.57;;;7.77;;
1567;SDS011;777;47.156;8.326;2024-03-02T21:14:41;11.97;;;10.87;;
1567;SDS011;777;47.156;8.326;2024-03-02T21:44:44;12.87;;;11.63;;
1567;SDS011;777;47.156;8.326;2024-03-02T22:14:48;9.63;;;8.73;;
1567;SDS011;777;47.156;8.326;2024-03-02T22:44:51;9.47;;;8.53;;
1567;SDS011;777;47.156;8.326;2024-03-02T23:14:54;10.97;;;9.87;;
1567;SDS011;777;47.156;8.326;2024-03-02T23:44:58;9.63;;;8.73;;
